sensor_id;sensor_type;location;lat;lon;timestamp;temperature;humidity
8338;DHT22;4206;48.634;9.516;2022-09-28T00:01:19;8.10;99.90
8338;DHT22;4206;48.634;9.516;2022-09-28T00:03:46;8.10;99.90
8338;DHT22;4206;48.634;9.516;2022-09-28T00:06:14;8.10;99.90
8338;DHT22;4206;48.634;9.516;2022-09-28T00:08:41;8.10;99.90
8338;DHT22;4206;48.634;9.516;2022-09-28T00:11:09;8.10;99.90
8338;DHT22;4206;48.634;9.516;2022-09-28T00:13:37;8.20;99.90
8338;DHT22;4206;48.634;9.516;2022-09-28T00:16:06;8.20;99.90
8338;DHT22;4206;48.634;9.516;2022-09-28T00:18:33;8.20;99.90
8338;DHT22;4206;48.634;9.516;2022-09-28T00:21:07;8.10;99.90
8338;DHT22;4206;48.634;9.516;2022-09-28T00:23:34;8.10;99.90
8338;DHT22;4206;48.634;9.516;2022-09-28T00:26:20;8.10;99.90
8338;DHT22;4206;48.634;9.516;2022-09-28T00:28:46;8.10;99.90
8338;DHT22;4206;48.634;9.516;2022-09-28T00:31:11;8.10;99.90
8338;DHT22;4206;48.634;9.516;2022-09-28T00:33:37;8.10;99.90
8338;DHT22;4206;48.634;9.516;2022-09-28T00:36:05;8.10;99.90
8338;DHT22;4206;48.634;9.516;2022-09-28T00:38:30;8.10;99.90
8338;DHT22;4206;48.634;9.516;2022-09-28T00:40:56;8.20;99.90
8338;DHT22;4206;48.634;9.516;2022-09-28T00:43:23;8.20;99.90
8338;DHT22;4206;48.634;9.516;2022-09-28T00:45:59;8.20;99.90
8338;DHT22;4206;48.634;9.516;2022-09-28T00:48:30;8.30;99.90
8338;DHT22;4206;48.634;9.516;2022-09-28T00:51:01;8.30;99.90
8338;DHT22;4206;48.634;9.516;2022-09-28T00:53:30;8.40;99.90
8338;DHT22;4206;48.634;9.516;2022-09-28T00:56:01;8.50;99.90
8338;DHT22;4206;48.634;9.516;2022-09-28T00:58:31;8.60;99.90
8338;DHT22;4206;48.634;9.516;2022-09-28T01:00:58;8.60;99.90
8338;DHT22;4206;48.634;9.516;2022-09-28T01:03:26;8.60;99.90
8338;DHT22;4206;48.634;9.516;2022-09-28T01:05:54;8.70;99.90
8338;DHT22;4206;48.634;9.516;2022-09-28T01:08:22;8.70;99.90
8338;DHT22;4206;48.634;9.516;2022-09-28T01:10:49;8.70;99.90
8338;DHT22;4206;48.634;9.516;2022-09-28T01:13:16;8.80;99.90
8338;DHT22;4206;48.634;9.516;2022-09-28T01:29:16;9.10;99.90
8338;DHT22;4206;48.634;9.516;2022-09-28T01:31:49;9.10;99.90
8338;DHT22;4206;48.634;9.516;2022-09-28T01:34:26;9.20;99.90
8338;DHT22;4206;48.634;9.516;2022-09-28T01:36:55;9.20;99.90
8338;DHT22;4206;48.634;9.516;2022-09-28T01:39:30;9.30;99.90
8338;DHT22;4206;48.634;9.516;2022-09-28T01:42:02;9.30;99.90
8338;DHT22;4206;48.634;9.516;2022-09-28T01:44:30;9.30;99.90
8338;DHT22;4206;48.634;9.516;2022-09-28T01:46:58;9.40;99.90
8338;DHT22;4206;48.634;9.516;2022-09-28T01:49:45;9.40;99.90
8338;DHT22;4206;48.634;9.516;2022-09-28T01:52:17;9.40;99.90
8338;DHT22;4206;48.634;9.516;2022-09-28T01:54:56;9.40;99.90
8338;DHT22;4206;48.634;9.516;2022-09-28T01:57:32;9.50;99.90
8338;DHT22;4206;48.634;9.516;2022-09-28T02:00:07;9.60;99.90
8338;DHT22;4206;48.634;9.516;2022-09-28T02:02:37;9.60;99.90
8338;DHT22;4206;48.634;9.516;2022-09-28T02:05:09;9.50;99.90
8338;DHT22;4206;48.634;9.516;2022-09-28T02:07:41;9.60;99.90
8338;DHT22;4206;48.634;9.516;2022-09-28T02:10:17;9.60;99.90
8338;DHT22;4206;48.634;9.516;2022-09-28T02:12:50;9.60;99.90
8338;DHT22;4206;48.634;9.516;2022-09-28T02:15:22;9.60;99.90
8338;DHT22;4206;48.634;9.516;2022-09-28T02:17:50;9.50;99.90
8338;DHT22;4206;48.634;9.516;2022-09-28T02:20:16;9.50;99.90
8338;DHT22;4206;48.634;9.516;2022-09-28T02:22:49;9.40;99.90
8338;DHT22;4206;48.634;9.516;2022-09-28T02:25:25;9.50;99.90
8338;DHT22;4206;48.634;9.516;2022-09-28T02:28:02;9.60;99.90
8338;DHT22;4206;48.634;9.516;2022-09-28T02:30:31;9.70;99.90
8338;DHT22;4206;48.634;9.516;2022-09-28T02:33:04;9.80;99.90
8338;DHT22;4206;48.634;9.516;2022-09-28T02:35:31;9.70;99.90
8338;DHT22;4206;48.634;9.516;2022-09-28T02:37:59;9.70;99.90
8338;DHT22;4206;48.634;9.516;2022-09-28T02:40:29;9.70;99.90
8338;DHT22;4206;48.634;9.516;2022-09-28T02:53:40;9.70;99.90
8338;DHT22;4206;48.634;9.516;2022-09-28T02:56:21;9.70;99.90
8338;DHT22;4206;48.634;9.516;2022-09-28T03:04:24;10.00;99.90
8338;DHT22;4206;48.634;9.516;2022-09-28T03:07:00;10.00;99.90
8338;DHT22;4206;48.634;9.516;2022-09-28T03:09:39;10.10;99.90
8338;DHT22;4206;48.634;9.516;2022-09-28T03:12:09;10.10;99.90
8338;DHT22;4206;48.634;9.516;2022-09-28T03:14:37;10.10;99.90
8338;DHT22;4206;48.634;9.516;2022-09-28T03:17:03;10.00;99.90
8338;DHT22;4206;48.634;9.516;2022-09-28T03:19:31;10.00;99.90
8338;DHT22;4206;48.634;9.516;2022-09-28T03:21:57;9.90;99.90
8338;DHT22;4206;48.634;9.516;2022-09-28T03:24:24;10.20;99.90
8338;DHT22;4206;48.634;9.516;2022-09-28T03:26:50;10.20;99.90
8338;DHT22;4206;48.634;9.516;2022-09-28T03:29:15;10.10;99.90
8338;DHT22;4206;48.634;9.516;2022-09-28T03:31:41;10.10;99.90
8338;DHT22;4206;48.634;9.516;2022-09-28T03:34:08;10.20;99.90
8338;DHT22;4206;48.634;9.516;2022-09-28T03:36:34;10.20;99.90
8338;DHT22;4206;48.634;9.516;2022-09-28T03:38:59;10.20;99.90
8338;DHT22;4206;48.634;9.516;2022-09-28T03:41:25;10.30;99.90
8338;DHT22;4206;48.634;9.516;2022-09-28T03:43:52;10.20;99.90
8338;DHT22;4206;48.634;9.516;2022-09-28T03:46:18;10.10;99.90
8338;DHT22;4206;48.634;9.516;2022-09-28T03:48:44;10.00;99.90
8338;DHT22;4206;48.634;9.516;2022-09-28T03:51:10;10.00;99.90
8338;DHT22;4206;48.634;9.516;2022-09-28T03:53:36;9.90;99.90
8338;DHT22;4206;48.634;9.516;2022-09-28T03:56:05;9.80;99.90
8338;DHT22;4206;48.634;9.516;2022-09-28T03:58:32;9.90;99.90
8338;DHT22;4206;48.634;9.516;2022-09-28T04:01:02;9.80;99.90
8338;DHT22;4206;48.634;9.516;2022-09-28T04:03:28;9.80;99.90
8338;DHT22;4206;48.634;9.516;2022-09-28T04:05:53;9.80;99.90
8338;DHT22;4206;48.634;9.516;2022-09-28T04:08:19;9.80;99.90
8338;DHT22;4206;48.634;9.516;2022-09-28T04:10:45;9.70;99.90
8338;DHT22;4206;48.634;9.516;2022-09-28T04:13:11;9.70;99.90
8338;DHT22;4206;48.634;9.516;2022-09-28T04:15:37;9.60;99.90
8338;DHT22;4206;48.634;9.516;2022-09-28T04:18:08;9.60;99.90
8338;DHT22;4206;48.634;9.516;2022-09-28T04:20:33;9.60;99.90
8338;DHT22;4206;48.634;9.516;2022-09-28T04:22:59;9.60;99.90
8338;DHT22;4206;48.634;9.516;2022-09-28T04:25:24;9.60;99.90
8338;DHT22;4206;48.634;9.516;2022-09-28T04:27:50;9.60;99.90
8338;DHT22;4206;48.634;9.516;2022-09-28T04:30:31;9.60;99.90
8338;DHT22;4206;48.634;9.516;2022-09-28T04:32:56;9.60;99.90
8338;DHT22;4206;48.634;9.516;2022-09-28T04:35:22;9.60;99.90
8338;DHT22;4206;48.634;9.516;2022-09-28T04:37:47;9.50;99.90
8338;DHT22;4206;48.634;9.516;2022-09-28T04:40:13;9.50;99.90
8338;DHT22;4206;48.634;9.516;2022-09-28T04:42:39;9.50;99.90
8338;DHT22;4206;48.634;9.516;2022-09-28T04:45:05;9.50;99.90
8338;DHT22;4206;48.634;9.516;2022-09-28T04:47:30;9.50;99.90
8338;DHT22;4206;48.634;9.516;2022-09-28T04:49:56;9.50;99.90
8338;DHT22;4206;48.634;9.516;2022-09-28T04:52:22;9.50;99.90
8338;DHT22;4206;48.634;9.516;2022-09-28T04:54:47;9.40;99.90
8338;DHT22;4206;48.634;9.516;2022-09-28T04:57:13;9.40;99.90
8338;DHT22;4206;48.634;9.516;2022-09-28T04:59:38;9.40;99.90
8338;DHT22;4206;48.634;9.516;2022-09-28T05:02:04;9.30;99.90
8338;DHT22;4206;48.634;9.516;2022-09-28T05:04:30;9.40;99.90
8338;DHT22;4206;48.634;9.516;2022-09-28T05:06:56;9.40;99.90
8338;DHT22;4206;48.634;9.516;2022-09-28T05:09:22;9.30;99.90
8338;DHT22;4206;48.634;9.516;2022-09-28T05:11:48;9.30;99.90
8338;DHT22;4206;48.634;9.516;2022-09-28T05:14:14;9.30;99.90
8338;DHT22;4206;48.634;9.516;2022-09-28T05:16:41;9.20;99.90
8338;DHT22;4206;48.634;9.516;2022-09-28T05:19:06;9.20;99.90
8338;DHT22;4206;48.634;9.516;2022-09-28T05:21:32;9.10;99.90
8338;DHT22;4206;48.634;9.516;2022-09-28T05:23:58;9.00;99.90
8338;DHT22;4206;48.634;9.516;2022-09-28T05:26:23;9.00;99.90
8338;DHT22;4206;48.634;9.516;2022-09-28T05:28:49;8.90;99.90
8338;DHT22;4206;48.634;9.516;2022-09-28T05:31:15;8.80;99.90
8338;DHT22;4206;48.634;9.516;2022-09-28T05:33:41;8.80;99.90
8338;DHT22;4206;48.634;9.516;2022-09-28T05:36:08;8.70;99.90
8338;DHT22;4206;48.634;9.516;2022-09-28T05:38:35;8.70;99.90
8338;DHT22;4206;48.634;9.516;2022-09-28T05:41:01;8.70;99.90
8338;DHT22;4206;48.634;9.516;2022-09-28T05:43:26;8.70;99.90
8338;DHT22;4206;48.634;9.516;2022-09-28T05:45:52;8.70;99.90
8338;DHT22;4206;48.634;9.516;2022-09-28T05:48:18;8.60;99.90
8338;DHT22;4206;48.634;9.516;2022-09-28T05:50:43;8.60;99.90
8338;DHT22;4206;48.634;9.516;2022-09-28T05:53:09;8.60;99.90
8338;DHT22;4206;48.634;9.516;2022-09-28T05:55:36;8.60;99.90
8338;DHT22;4206;48.634;9.516;2022-09-28T05:58:04;8.60;99.90
8338;DHT22;4206;48.634;9.516;2022-09-28T06:00:31;8.60;99.90
8338;DHT22;4206;48.634;9.516;2022-09-28T06:03:00;8.50;99.90
8338;DHT22;4206;48.634;9.516;2022-09-28T06:05:27;8.50;99.90
8338;DHT22;4206;48.634;9.516;2022-09-28T06:07:55;8.50;99.90
8338;DHT22;4206;48.634;9.516;2022-09-28T06:10:21;8.50;99.90
8338;DHT22;4206;48.634;9.516;2022-09-28T06:12:52;8.50;99.90
8338;DHT22;4206;48.634;9.516;2022-09-28T06:15:17;8.50;99.90
8338;DHT22;4206;48.634;9.516;2022-09-28T06:17:43;8.50;99.90
8338;DHT22;4206;48.634;9.516;2022-09-28T06:20:10;8.40;99.90
8338;DHT22;4206;48.634;9.516;2022-09-28T06:22:36;8.50;99.90
8338;DHT22;4206;48.634;9.516;2022-09-28T06:25:02;8.40;99.90
8338;DHT22;4206;48.634;9.516;2022-09-28T06:27:28;8.30;99.90
8338;DHT22;4206;48.634;9.516;2022-09-28T06:29:54;8.40;99.90
8338;DHT22;4206;48.634;9.516;2022-09-28T06:32:19;8.40;99.90
8338;DHT22;4206;48.634;9.516;2022-09-28T06:34:45;8.40;99.90
8338;DHT22;4206;48.634;9.516;2022-09-28T06:37:10;8.30;99.90
8338;DHT22;4206;48.634;9.516;2022-09-28T06:39:36;8.40;99.90
8338;DHT22;4206;48.634;9.516;2022-09-28T06:42:01;8.40;99.90
8338;DHT22;4206;48.634;9.516;2022-09-28T06:44:28;8.30;99.90
8338;DHT22;4206;48.634;9.516;2022-09-28T06:46:56;8.20;99.90
8338;DHT22;4206;48.634;9.516;2022-09-28T06:49:22;8.30;99.90
8338;DHT22;4206;48.634;9.516;2022-09-28T06:51:48;8.20;99.90
8338;DHT22;4206;48.634;9.516;2022-09-28T06:54:13;8.30;99.90
8338;DHT22;4206;48.634;9.516;2022-09-28T06:56:39;8.30;99.90
8338;DHT22;4206;48.634;9.516;2022-09-28T06:59:05;8.30;99.90
8338;DHT22;4206;48.634;9.516;2022-09-28T07:01:30;8.30;99.90
8338;DHT22;4206;48.634;9.516;2022-09-28T07:03:56;8.30;99.90
8338;DHT22;4206;48.634;9.516;2022-09-28T07:06:22;8.50;99.90
8338;DHT22;4206;48.634;9.516;2022-09-28T07:08:50;8.60;99.90
8338;DHT22;4206;48.634;9.516;2022-09-28T07:11:16;8.40;99.90
8338;DHT22;4206;48.634;9.516;2022-09-28T07:13:44;8.50;99.90
8338;DHT22;4206;48.634;9.516;2022-09-28T07:16:10;8.50;99.90
8338;DHT22;4206;48.634;9.516;2022-09-28T07:18:36;8.40;99.90
8338;DHT22;4206;48.634;9.516;2022-09-28T07:21:02;8.50;99.90
8338;DHT22;4206;48.634;9.516;2022-09-28T07:23:29;8.50;99.90
8338;DHT22;4206;48.634;9.516;2022-09-28T07:25:56;8.50;99.90
8338;DHT22;4206;48.634;9.516;2022-09-28T07:28:23;8.50;99.90
8338;DHT22;4206;48.634;9.516;2022-09-28T07:30:48;8.60;99.90
8338;DHT22;4206;48.634;9.516;2022-09-28T07:33:15;8.60;99.90
8338;DHT22;4206;48.634;9.516;2022-09-28T07:35:50;8.70;99.90
8338;DHT22;4206;48.634;9.516;2022-09-28T07:38:16;8.80;99.90
8338;DHT22;4206;48.634;9.516;2022-09-28T07:40:43;8.80;99.90
8338;DHT22;4206;48.634;9.516;2022-09-28T07:43:24;8.80;99.90
8338;DHT22;4206;48.634;9.516;2022-09-28T07:45:51;8.90;99.90
8338;DHT22;4206;48.634;9.516;2022-09-28T07:48:17;8.90;99.90
8338;DHT22;4206;48.634;9.516;2022-09-28T07:53:15;8.90;99.90
8338;DHT22;4206;48.634;9.516;2022-09-28T07:55:41;9.00;99.90
8338;DHT22;4206;48.634;9.516;2022-09-28T07:58:06;8.90;99.90
8338;DHT22;4206;48.634;9.516;2022-09-28T08:00:32;9.00;99.90
8338;DHT22;4206;48.634;9.516;2022-09-28T08:02:58;9.00;99.90
8338;DHT22;4206;48.634;9.516;2022-09-28T08:05:24;8.90;99.90
8338;DHT22;4206;48.634;9.516;2022-09-28T08:07:50;9.00;99.90
8338;DHT22;4206;48.634;9.516;2022-09-28T08:10:17;9.00;99.90
8338;DHT22;4206;48.634;9.516;2022-09-28T08:12:43;9.10;99.90
8338;DHT22;4206;48.634;9.516;2022-09-28T08:15:10;9.10;99.90
8338;DHT22;4206;48.634;9.516;2022-09-28T08:17:37;9.20;99.90
8338;DHT22;4206;48.634;9.516;2022-09-28T08:20:03;9.30;99.90
8338;DHT22;4206;48.634;9.516;2022-09-28T08:22:44;9.30;99.90
8338;DHT22;4206;48.634;9.516;2022-09-28T08:25:09;9.30;99.90
8338;DHT22;4206;48.634;9.516;2022-09-28T08:27:35;9.20;99.90
8338;DHT22;4206;48.634;9.516;2022-09-28T08:30:00;9.20;99.90
8338;DHT22;4206;48.634;9.516;2022-09-28T08:32:26;9.20;99.90
8338;DHT22;4206;48.634;9.516;2022-09-28T08:34:54;9.20;99.90
8338;DHT22;4206;48.634;9.516;2022-09-28T08:37:20;9.10;99.90
8338;DHT22;4206;48.634;9.516;2022-09-28T08:39:46;9.20;99.90
8338;DHT22;4206;48.634;9.516;2022-09-28T08:42:29;9.30;99.90
8338;DHT22;4206;48.634;9.516;2022-09-28T08:45:04;9.30;99.90
8338;DHT22;4206;48.634;9.516;2022-09-28T08:47:44;9.40;99.90
8338;DHT22;4206;48.634;9.516;2022-09-28T08:50:30;9.50;99.90
8338;DHT22;4206;48.634;9.516;2022-09-28T08:53:03;9.50;99.90
8338;DHT22;4206;48.634;9.516;2022-09-28T08:55:33;9.40;99.90
8338;DHT22;4206;48.634;9.516;2022-09-28T08:58:10;9.50;99.90
8338;DHT22;4206;48.634;9.516;2022-09-28T09:00:42;9.50;99.90
8338;DHT22;4206;48.634;9.516;2022-09-28T09:03:13;9.60;99.90
8338;DHT22;4206;48.634;9.516;2022-09-28T09:13:58;9.90;99.90
8338;DHT22;4206;48.634;9.516;2022-09-28T09:16:31;10.00;99.90
8338;DHT22;4206;48.634;9.516;2022-09-28T09:19:14;10.20;99.90
8338;DHT22;4206;48.634;9.516;2022-09-28T09:27:04;10.30;99.90
8338;DHT22;4206;48.634;9.516;2022-09-28T09:29:40;10.30;99.90
8338;DHT22;4206;48.634;9.516;2022-09-28T09:32:34;10.20;99.90
8338;DHT22;4206;48.634;9.516;2022-09-28T09:48:24;10.50;99.90
8338;DHT22;4206;48.634;9.516;2022-09-28T09:50:56;10.40;99.90
8338;DHT22;4206;48.634;9.516;2022-09-28T09:56:26;10.60;99.90
8338;DHT22;4206;48.634;9.516;2022-09-28T09:59:01;10.50;99.90
8338;DHT22;4206;48.634;9.516;2022-09-28T10:01:35;10.50;99.90
8338;DHT22;4206;48.634;9.516;2022-09-28T10:04:05;10.70;99.90
8338;DHT22;4206;48.634;9.516;2022-09-28T10:06:36;10.80;99.90
8338;DHT22;4206;48.634;9.516;2022-09-28T10:09:09;11.00;99.90
8338;DHT22;4206;48.634;9.516;2022-09-28T10:11:41;11.30;99.90
8338;DHT22;4206;48.634;9.516;2022-09-28T10:14:14;11.60;99.90
8338;DHT22;4206;48.634;9.516;2022-09-28T10:16:42;11.90;99.90
8338;DHT22;4206;48.634;9.516;2022-09-28T10:19:10;11.90;99.90
8338;DHT22;4206;48.634;9.516;2022-09-28T10:21:38;12.00;99.90
8338;DHT22;4206;48.634;9.516;2022-09-28T10:24:11;11.90;99.90
8338;DHT22;4206;48.634;9.516;2022-09-28T10:26:41;11.80;99.90
8338;DHT22;4206;48.634;9.516;2022-09-28T10:29:13;11.70;99.90
8338;DHT22;4206;48.634;9.516;2022-09-28T10:31:45;11.80;99.90
8338;DHT22;4206;48.634;9.516;2022-09-28T10:34:14;11.80;99.90
8338;DHT22;4206;48.634;9.516;2022-09-28T10:39:27;12.00;99.90
8338;DHT22;4206;48.634;9.516;2022-09-28T10:41:53;12.10;99.90
8338;DHT22;4206;48.634;9.516;2022-09-28T10:44:20;12.30;99.90
8338;DHT22;4206;48.634;9.516;2022-09-28T10:46:55;12.50;99.90
8338;DHT22;4206;48.634;9.516;2022-09-28T10:49:21;12.60;99.90
8338;DHT22;4206;48.634;9.516;2022-09-28T10:51:51;12.50;99.90
8338;DHT22;4206;48.634;9.516;2022-09-28T10:54:21;12.60;99.90
8338;DHT22;4206;48.634;9.516;2022-09-28T10:56:49;12.70;99.90
8338;DHT22;4206;48.634;9.516;2022-09-28T11:02:00;12.40;99.90
8338;DHT22;4206;48.634;9.516;2022-09-28T11:04:29;12.30;99.90
8338;DHT22;4206;48.634;9.516;2022-09-28T11:07:00;12.20;99.90
8338;DHT22;4206;48.634;9.516;2022-09-28T11:09:29;12.10;99.90
8338;DHT22;4206;48.634;9.516;2022-09-28T11:11:57;12.10;99.90
8338;DHT22;4206;48.634;9.516;2022-09-28T11:19:49;11.80;99.90
8338;DHT22;4206;48.634;9.516;2022-09-28T11:22:28;11.70;99.90
8338;DHT22;4206;48.634;9.516;2022-09-28T11:32:50;11.50;99.90
8338;DHT22;4206;48.634;9.516;2022-09-28T11:35:21;11.60;99.90
8338;DHT22;4206;48.634;9.516;2022-09-28T11:38:13;11.70;99.90
8338;DHT22;4206;48.634;9.516;2022-09-28T11:44:01;12.10;99.90
8338;DHT22;4206;48.634;9.516;2022-09-28T11:46:49;12.40;99.90
8338;DHT22;4206;48.634;9.516;2022-09-28T11:52:31;12.70;99.90
8338;DHT22;4206;48.634;9.516;2022-09-28T11:55:08;12.80;99.90
8338;DHT22;4206;48.634;9.516;2022-09-28T11:57:39;12.90;99.90
8338;DHT22;4206;48.634;9.516;2022-09-28T12:00:13;12.90;99.90
8338;DHT22;4206;48.634;9.516;2022-09-28T12:05:42;12.90;99.90
8338;DHT22;4206;48.634;9.516;2022-09-28T12:08:17;12.80;99.90
8338;DHT22;4206;48.634;9.516;2022-09-28T12:11:00;12.70;99.90
8338;DHT22;4206;48.634;9.516;2022-09-28T12:13:32;12.90;99.90
8338;DHT22;4206;48.634;9.516;2022-09-28T12:16:03;12.90;99.90
8338;DHT22;4206;48.634;9.516;2022-09-28T12:18:40;12.80;99.90
8338;DHT22;4206;48.634;9.516;2022-09-28T12:23:42;12.70;99.90
8338;DHT22;4206;48.634;9.516;2022-09-28T12:26:39;12.60;99.90
8338;DHT22;4206;48.634;9.516;2022-09-28T12:29:11;12.70;99.90
8338;DHT22;4206;48.634;9.516;2022-09-28T12:31:51;12.70;99.90
8338;DHT22;4206;48.634;9.516;2022-09-28T12:34:18;12.80;99.90
8338;DHT22;4206;48.634;9.516;2022-09-28T12:45:03;13.00;99.90
8338;DHT22;4206;48.634;9.516;2022-09-28T12:53:01;13.20;99.90
8338;DHT22;4206;48.634;9.516;2022-09-28T13:01:16;13.00;99.90
8338;DHT22;4206;48.634;9.516;2022-09-28T13:03:50;13.00;99.90
8338;DHT22;4206;48.634;9.516;2022-09-28T13:06:21;12.70;99.90
8338;DHT22;4206;48.634;9.516;2022-09-28T13:22:42;12.70;99.90
8338;DHT22;4206;48.634;9.516;2022-09-28T13:25:16;12.70;99.90
8338;DHT22;4206;48.634;9.516;2022-09-28T13:27:49;12.70;99.90
8338;DHT22;4206;48.634;9.516;2022-09-28T13:30:17;12.70;99.90
8338;DHT22;4206;48.634;9.516;2022-09-28T13:32:45;12.70;99.90
8338;DHT22;4206;48.634;9.516;2022-09-28T13:35:13;12.60;99.90
8338;DHT22;4206;48.634;9.516;2022-09-28T13:37:40;12.60;99.90
8338;DHT22;4206;48.634;9.516;2022-09-28T13:40:06;12.60;99.90
8338;DHT22;4206;48.634;9.516;2022-09-28T13:58:31;13.00;99.90
8338;DHT22;4206;48.634;9.516;2022-09-28T14:01:16;13.10;99.90
8338;DHT22;4206;48.634;9.516;2022-09-28T14:06:43;12.90;99.90
8338;DHT22;4206;48.634;9.516;2022-09-28T14:16:34;12.60;99.90
8338;DHT22;4206;48.634;9.516;2022-09-28T14:19:15;12.60;99.90
8338;DHT22;4206;48.634;9.516;2022-09-28T14:22:09;12.70;99.90
8338;DHT22;4206;48.634;9.516;2022-09-28T14:24:59;12.60;99.90
8338;DHT22;4206;48.634;9.516;2022-09-28T14:33:16;12.50;99.90
8338;DHT22;4206;48.634;9.516;2022-09-28T14:38:27;12.30;99.90
8338;DHT22;4206;48.634;9.516;2022-09-28T14:46:30;12.30;99.90
8338;DHT22;4206;48.634;9.516;2022-09-28T14:54:04;12.30;99.90
8338;DHT22;4206;48.634;9.516;2022-09-28T15:04:18;12.50;99.90
8338;DHT22;4206;48.634;9.516;2022-09-28T15:06:47;12.60;99.90
8338;DHT22;4206;48.634;9.516;2022-09-28T15:12:03;12.60;99.90
8338;DHT22;4206;48.634;9.516;2022-09-28T15:14:33;12.60;99.90
8338;DHT22;4206;48.634;9.516;2022-09-28T15:17:07;12.50;99.90
8338;DHT22;4206;48.634;9.516;2022-09-28T15:22:22;12.50;99.90
8338;DHT22;4206;48.634;9.516;2022-09-28T15:25:07;12.50;99.90
8338;DHT22;4206;48.634;9.516;2022-09-28T15:27:38;12.40;99.90
8338;DHT22;4206;48.634;9.516;2022-09-28T15:32:46;12.30;99.90
8338;DHT22;4206;48.634;9.516;2022-09-28T15:35:17;12.30;99.90
8338;DHT22;4206;48.634;9.516;2022-09-28T15:37:45;12.30;99.90
8338;DHT22;4206;48.634;9.516;2022-09-28T15:40:13;12.20;99.90
8338;DHT22;4206;48.634;9.516;2022-09-28T15:42:41;12.10;99.90
8338;DHT22;4206;48.634;9.516;2022-09-28T15:45:21;12.00;99.90
8338;DHT22;4206;48.634;9.516;2022-09-28T15:47:52;12.00;99.90
8338;DHT22;4206;48.634;9.516;2022-09-28T15:50:25;12.00;99.90
8338;DHT22;4206;48.634;9.516;2022-09-28T15:52:59;11.90;99.90
8338;DHT22;4206;48.634;9.516;2022-09-28T15:55:30;12.00;99.90
8338;DHT22;4206;48.634;9.516;2022-09-28T16:00:31;11.90;99.90
8338;DHT22;4206;48.634;9.516;2022-09-28T16:02:58;11.90;99.90
8338;DHT22;4206;48.634;9.516;2022-09-28T16:05:31;11.90;99.90
8338;DHT22;4206;48.634;9.516;2022-09-28T16:08:03;11.90;99.90
8338;DHT22;4206;48.634;9.516;2022-09-28T16:10:32;11.80;99.90
8338;DHT22;4206;48.634;9.516;2022-09-28T16:13:10;11.70;99.90
8338;DHT22;4206;48.634;9.516;2022-09-28T16:15:37;11.70;99.90
8338;DHT22;4206;48.634;9.516;2022-09-28T16:20:50;11.50;99.90
8338;DHT22;4206;48.634;9.516;2022-09-28T16:26:02;11.40;99.90
8338;DHT22;4206;48.634;9.516;2022-09-28T16:31:01;11.20;99.90
8338;DHT22;4206;48.634;9.516;2022-09-28T16:33:29;11.20;99.90
8338;DHT22;4206;48.634;9.516;2022-09-28T16:36:01;11.20;99.90
8338;DHT22;4206;48.634;9.516;2022-09-28T16:38:27;11.10;99.90
8338;DHT22;4206;48.634;9.516;2022-09-28T16:40:52;11.00;99.90
8338;DHT22;4206;48.634;9.516;2022-09-28T16:46:09;10.90;99.90
8338;DHT22;4206;48.634;9.516;2022-09-28T16:48:40;10.80;99.90
8338;DHT22;4206;48.634;9.516;2022-09-28T16:51:13;10.70;99.90
8338;DHT22;4206;48.634;9.516;2022-09-28T16:53:39;10.60;99.90
8338;DHT22;4206;48.634;9.516;2022-09-28T16:56:20;10.60;99.90
8338;DHT22;4206;48.634;9.516;2022-09-28T16:58:46;10.50;99.90
8338;DHT22;4206;48.634;9.516;2022-09-28T17:01:13;10.40;99.90
8338;DHT22;4206;48.634;9.516;2022-09-28T17:03:39;10.40;99.90
8338;DHT22;4206;48.634;9.516;2022-09-28T17:06:11;10.40;99.90
8338;DHT22;4206;48.634;9.516;2022-09-28T17:08:38;10.30;99.90
8338;DHT22;4206;48.634;9.516;2022-09-28T17:11:04;10.20;99.90
8338;DHT22;4206;48.634;9.516;2022-09-28T17:13:31;10.20;99.90
8338;DHT22;4206;48.634;9.516;2022-09-28T17:16:00;10.10;99.90
8338;DHT22;4206;48.634;9.516;2022-09-28T17:18:26;10.00;99.90
8338;DHT22;4206;48.634;9.516;2022-09-28T17:20:54;10.00;99.90
8338;DHT22;4206;48.634;9.516;2022-09-28T17:23:21;10.00;99.90
8338;DHT22;4206;48.634;9.516;2022-09-28T17:25:47;10.00;99.90
8338;DHT22;4206;48.634;9.516;2022-09-28T17:28:19;10.00;99.90
8338;DHT22;4206;48.634;9.516;2022-09-28T17:30:46;10.00;99.90
8338;DHT22;4206;48.634;9.516;2022-09-28T17:33:12;9.90;99.90
8338;DHT22;4206;48.634;9.516;2022-09-28T17:35:38;9.80;99.90
8338;DHT22;4206;48.634;9.516;2022-09-28T17:38:04;9.70;99.90
8338;DHT22;4206;48.634;9.516;2022-09-28T17:40:30;9.70;99.90
8338;DHT22;4206;48.634;9.516;2022-09-28T17:42:56;9.60;99.90
8338;DHT22;4206;48.634;9.516;2022-09-28T17:45:25;9.60;99.90
8338;DHT22;4206;48.634;9.516;2022-09-28T17:47:53;9.50;99.90
8338;DHT22;4206;48.634;9.516;2022-09-28T17:50:24;9.50;99.90
8338;DHT22;4206;48.634;9.516;2022-09-28T17:52:52;9.50;99.90
8338;DHT22;4206;48.634;9.516;2022-09-28T17:55:22;9.50;99.90
8338;DHT22;4206;48.634;9.516;2022-09-28T17:57:48;9.40;99.90
8338;DHT22;4206;48.634;9.516;2022-09-28T18:00:14;9.40;99.90
8338;DHT22;4206;48.634;9.516;2022-09-28T18:02:40;9.30;99.90
8338;DHT22;4206;48.634;9.516;2022-09-28T18:05:06;9.30;99.90
8338;DHT22;4206;48.634;9.516;2022-09-28T18:07:32;9.20;99.90
8338;DHT22;4206;48.634;9.516;2022-09-28T18:09:59;9.20;99.90
8338;DHT22;4206;48.634;9.516;2022-09-28T18:12:25;9.10;99.90
8338;DHT22;4206;48.634;9.516;2022-09-28T18:14:52;9.00;99.90
8338;DHT22;4206;48.634;9.516;2022-09-28T18:17:18;9.00;99.90
8338;DHT22;4206;48.634;9.516;2022-09-28T18:19:44;8.90;99.90
8338;DHT22;4206;48.634;9.516;2022-09-28T18:22:09;8.80;99.90
8338;DHT22;4206;48.634;9.516;2022-09-28T18:24:35;8.80;99.90
8338;DHT22;4206;48.634;9.516;2022-09-28T18:27:01;8.80;99.90
8338;DHT22;4206;48.634;9.516;2022-09-28T18:29:26;8.70;99.90
8338;DHT22;4206;48.634;9.516;2022-09-28T18:31:52;8.70;99.90
8338;DHT22;4206;48.634;9.516;2022-09-28T18:34:18;8.60;99.90
8338;DHT22;4206;48.634;9.516;2022-09-28T18:36:43;8.60;99.90
8338;DHT22;4206;48.634;9.516;2022-09-28T18:39:09;8.60;99.90
8338;DHT22;4206;48.634;9.516;2022-09-28T18:41:36;8.60;99.90
8338;DHT22;4206;48.634;9.516;2022-09-28T18:44:01;8.50;99.90
8338;DHT22;4206;48.634;9.516;2022-09-28T18:46:28;8.50;99.90
8338;DHT22;4206;48.634;9.516;2022-09-28T18:48:54;8.40;99.90
8338;DHT22;4206;48.634;9.516;2022-09-28T18:51:21;8.40;99.90
8338;DHT22;4206;48.634;9.516;2022-09-28T18:53:47;8.30;99.90
8338;DHT22;4206;48.634;9.516;2022-09-28T18:56:15;8.30;99.90
8338;DHT22;4206;48.634;9.516;2022-09-28T18:58:43;8.20;99.90
8338;DHT22;4206;48.634;9.516;2022-09-28T19:01:12;8.20;99.90
8338;DHT22;4206;48.634;9.516;2022-09-28T19:03:38;8.20;99.90
8338;DHT22;4206;48.634;9.516;2022-09-28T19:06:09;8.20;99.90
8338;DHT22;4206;48.634;9.516;2022-09-28T19:08:35;8.10;99.90
8338;DHT22;4206;48.634;9.516;2022-09-28T19:11:06;8.10;99.90
8338;DHT22;4206;48.634;9.516;2022-09-28T19:13:33;8.00;99.90
8338;DHT22;4206;48.634;9.516;2022-09-28T19:15:58;8.00;99.90
8338;DHT22;4206;48.634;9.516;2022-09-28T19:18:29;8.00;99.90
8338;DHT22;4206;48.634;9.516;2022-09-28T19:21:01;8.00;99.90
8338;DHT22;4206;48.634;9.516;2022-09-28T19:23:27;7.90;99.90
8338;DHT22;4206;48.634;9.516;2022-09-28T19:25:53;8.00;99.90
8338;DHT22;4206;48.634;9.516;2022-09-28T19:28:18;8.00;99.90
8338;DHT22;4206;48.634;9.516;2022-09-28T19:30:44;8.00;99.90
8338;DHT22;4206;48.634;9.516;2022-09-28T19:33:10;8.00;99.90
8338;DHT22;4206;48.634;9.516;2022-09-28T19:35:35;8.00;99.90
8338;DHT22;4206;48.634;9.516;2022-09-28T19:38:01;8.00;99.90
8338;DHT22;4206;48.634;9.516;2022-09-28T19:40:27;8.00;99.90
8338;DHT22;4206;48.634;9.516;2022-09-28T19:42:56;8.00;99.90
8338;DHT22;4206;48.634;9.516;2022-09-28T19:45:23;8.00;99.90